Fulda, Minnesota
Current Conditions -  °F | °C
As of 12:14 PM on Thursday 30 Oct 2014 (Local Time) from KDVP Reporting Station
Overcast Overcast  
Wind Chill: 53°   Ceiling: 6000
Heat Index: 53°   Visibility: 10mi
Dew Point: 35°   Wind: 13mph
Humidity: 52%   Direction: 350°N
Pressure: 30.1"   Gusts: 18mph
Location:  43.87°N, 95.6°W
Report Text: KDVP 301714Z AUTO 35011G16KT 10SM OVC060 12/02 A3010 RMK AO2 T01160019
Loading
Personal Weather Stations






























Interactive Weather Map
Tropical Storm Tracking
New forecast layout! Learn more

10-Day Weather Forecast

Advertisements
Track Severe Weather on mobile